Time;durP1;ratioP1;P1;durP2;ratioP2;P2;SDS_P1;SDS_P2;PMS_P1;PMS_P2;Temp;Humidity;BMP_temperature;BMP_pressure;BME280_temperature;BME280_humidity;BME280_pressure;Samples;Min_cycle;Max_cycle;Signal;HPM_P1;HPM_P2
2023/09/24 00:00:38;;;;;;;;;;;;;;;;;;5111410;28;19912;-72
2023/09/24 00:03:05;;;;;;;;;;;;;;;;;;5110382;28;20278;-72
2023/09/24 00:05:31;;;;;;;;;;;;;;;;;;5111942;28;19951;-72
2023/09/24 00:10:41;;;;;;;;;;;;;;;;;;5112552;27;19912;-72
2023/09/24 00:13:07;;;;;;;;;;;;;;;;;;5111706;28;19941;-72
2023/09/24 00:15:33;;;;;;;;;;;;;;;;;;5111238;28;20232;-71
2023/09/24 00:18:59;;;;;;;;;;;;;;;;;;5112251;27;19934;-72
2023/09/24 00:21:25;;;;;;;;;;;;;;;;;;5111441;28;20007;-72
2023/09/24 00:26:41;;;;;;;;;;;;;;;;;;5091844;27;20384;-72
2023/09/24 00:31:42;;;;;;;;;;;;;;;;;;5112096;27;19916;-72
2023/09/24 00:34:08;;;;;;;;;;;;;;;;;;5111785;28;19955;-72
2023/09/24 00:36:35;;;;;;;;;;;;;;;;;;5109961;28;20264;-72
2023/09/24 00:40:02;;;;;;;;;;;;;;;;;;5112243;27;20276;-72
2023/09/24 00:42:28;;;;;;;;;;;;;;;;;;5111427;28;19915;-72
2023/09/24 00:44:55;;;;;;;;;;;;;;;;;;5111816;28;19953;-72
2023/09/24 00:47:22;;;;;;;;;;;;;;;;;;5110324;28;19943;-72
2023/09/24 00:49:48;;;;;;;;;;;;;;;;;;5111183;28;19919;-72
2023/09/24 00:52:14;;;;;;;;;;;;;;;;;;5110265;28;20299;-72
2023/09/24 00:55:03;;;;;;;;;;;;;;;;;;5091368;28;19918;-72
2023/09/24 00:58:51;;;;;;;;;;;;;;;;;;5112504;27;20292;-72
2023/09/24 01:01:17;;;;;;;;;;;;;;;;;;5110477;28;19912;-72
2023/09/24 01:03:46;;;;;;;;;;;;;;;;;;5111290;28;19915;-72
2023/09/24 01:06:13;;;;;;;;;;;;;;;;;;5111765;28;19908;-72
2023/09/24 01:10:46;;;;;;;;;;;;;;;;;;5111805;27;19916;-72
2023/09/24 01:14:30;;;;;;;;;;;;;;;;;;5111840;27;20307;-72
2023/09/24 01:16:56;;;;;;;;;;;;;;;;;;5111852;28;19918;-72
2023/09/24 01:19:23;;;;;;;;;;;;;;;;;;5111660;28;19908;-72
2023/09/24 01:24:15;;;;;;;;;;;;;;;;;;5111622;27;20387;-72
2023/09/24 01:26:41;;;;;;;;;;;;;;;;;;5111689;28;20011;-72
2023/09/24 01:29:09;;;;;;;;;;;;;;;;;;5112221;28;20314;-72
2023/09/24 01:32:57;;;;;;;;;;;;;;;;;;5091067;28;19916;-72
2023/09/24 01:35:27;;;;;;;;;;;;;;;;;;5091337;28;19916;-72
2023/09/24 01:37:53;;;;;;;;;;;;;;;;;;5091313;28;19912;-72
2023/09/24 01:41:05;;;;;;;;;;;;;;;;;;5092147;28;19914;-72
2023/09/24 01:43:31;;;;;;;;;;;;;;;;;;5091366;28;19913;-72
2023/09/24 01:47:41;;;;;;;;;;;;;;;;;;5112322;27;19922;-72
2023/09/24 01:52:16;;;;;;;;;;;;;;;;;;5091415;27;19916;-72
2023/09/24 01:54:42;;;;;;;;;;;;;;;;;;5091539;28;19912;-72
2023/09/24 01:57:08;;;;;;;;;;;;;;;;;;5091353;28;19914;-72
2023/09/24 01:59:34;;;;;;;;;;;;;;;;;;5089725;28;19908;-72
2023/09/24 02:02:01;;;;;;;;;;;;;;;;;;5091213;28;19908;-72
2023/09/24 02:04:27;;;;;;;;;;;;;;;;;;5091276;28;19908;-73
2023/09/24 02:09:08;;;;;;;;;;;;;;;;;;5111868;27;19916;-73
2023/09/24 02:11:33;;;;;;;;;;;;;;;;;;5111961;28;20006;-73
2023/09/24 02:13:59;;;;;;;;;;;;;;;;;;5110052;28;20339;-73
2023/09/24 02:19:28;;;;;;;;;;;;;;;;;;5112451;27;19922;-72
2023/09/24 02:21:54;;;;;;;;;;;;;;;;;;5111361;28;19999;-72
2023/09/24 02:24:20;;;;;;;;;;;;;;;;;;5110390;28;19908;-72
2023/09/24 02:29:55;;;;;;;;;;;;;;;;;;5112499;27;19922;-72
2023/09/24 02:32:21;;;;;;;;;;;;;;;;;;5112027;28;20002;-72
2023/09/24 02:34:48;;;;;;;;;;;;;;;;;;5111260;28;19954;-72
2023/09/24 02:37:14;;;;;;;;;;;;;;;;;;5110422;28;19910;-72
2023/09/24 02:41:25;;;;;;;;;;;;;;;;;;5131965;27;19976;-72
2023/09/24 02:45:27;;;;;;;;;;;;;;;;;;5111994;27;20304;-72
2023/09/24 02:47:53;;;;;;;;;;;;;;;;;;5112114;28;19912;-72
2023/09/24 02:52:05;;;;;;;;;;;;;;;;;;5111828;27;19912;-71
2023/09/24 02:54:30;;;;;;;;;;;;;;;;;;5111746;28;20007;-72
2023/09/24 02:56:58;;;;;;;;;;;;;;;;;;5110021;28;19914;-72
2023/09/24 02:59:24;;;;;;;;;;;;;;;;;;5110392;28;19911;-71
2023/09/24 03:03:05;;;;;;;;;;;;;;;;;;5111829;27;19916;-71
2023/09/24 03:08:49;;;;;;;;;;;;;;;;;;5112285;27;19922;-72
2023/09/24 03:11:15;;;;;;;;;;;;;;;;;;5111304;28;19962;-72
2023/09/24 03:13:41;;;;;;;;;;;;;;;;;;5112242;28;19953;-72
2023/09/24 03:16:16;;;;;;;;;;;;;;;;;;5111420;27;19916;-72
2023/09/24 03:21:08;;;;;;;;;;;;;;;;;;5112040;27;19912;-72
2023/09/24 03:24:10;;;;;;;;;;;;;;;;;;5111928;27;19923;-72
2023/09/24 03:26:36;;;;;;;;;;;;;;;;;;5111688;28;20421;-72
2023/09/24 03:29:03;;;;;;;;;;;;;;;;;;5110401;28;19912;-72
2023/09/24 03:31:29;;;;;;;;;;;;;;;;;;5111195;28;19908;-72
2023/09/24 03:33:55;;;;;;;;;;;;;;;;;;5111630;28;20360;-72
2023/09/24 03:36:22;;;;;;;;;;;;;;;;;;5111515;28;19908;-72
2023/09/24 03:40:21;;;;;;;;;;;;;;;;;;5091451;28;19913;-72
2023/09/24 03:42:47;;;;;;;;;;;;;;;;;;5091303;28;20030;-72
2023/09/24 03:45:13;;;;;;;;;;;;;;;;;;5090910;28;19908;-72
2023/09/24 03:47:39;;;;;;;;;;;;;;;;;;5091282;28;19958;-72
2023/09/24 03:50:50;;;;;;;;;;;;;;;;;;5112463;27;19916;-72
2023/09/24 03:59:18;;;;;;;;;;;;;;;;;;5111447;27;19916;-73
2023/09/24 04:01:44;;;;;;;;;;;;;;;;;;5111767;28;19912;-72
2023/09/24 04:04:12;;;;;;;;;;;;;;;;;;5111609;28;19981;-72
2023/09/24 04:08:32;;;;;;;;;;;;;;;;;;5111807;27;20281;-73
2023/09/24 04:14:50;;;;;;;;;;;;;;;;;;5111792;27;19916;-72
2023/09/24 04:22:15;;;;;;;;;;;;;;;;;;5111893;27;19923;-72
2023/09/24 04:25:15;;;;;;;;;;;;;;;;;;5091582;27;20402;-72
2023/09/24 04:27:41;;;;;;;;;;;;;;;;;;5089682;28;19966;-72
2023/09/24 04:30:15;;;;;;;;;;;;;;;;;;5092150;28;20331;-72
2023/09/24 04:34:39;;;;;;;;;;;;;;;;;;5111637;27;19923;-72
2023/09/24 04:39:04;;;;;;;;;;;;;;;;;;5174144;27;20426;-72
2023/09/24 04:41:30;;;;;;;;;;;;;;;;;;5154631;27;19922;-72
2023/09/24 04:43:56;;;;;;;;;;;;;;;;;;5154976;27;19907;-72
2023/09/24 04:46:22;;;;;;;;;;;;;;;;;;5173703;27;19998;-72
2023/09/24 04:50:55;;;;;;;;;;;;;;;;;;5112037;27;20299;-72
2023/09/24 04:56:51;;;;;;;;;;;;;;;;;;5111432;27;20376;-72
2023/09/24 04:59:17;;;;;;;;;;;;;;;;;;5110590;28;19918;-72
2023/09/24 05:11:11;;;;;;;;;;;;;;;;;;5091920;27;19913;-72
2023/09/24 05:14:22;;;;;;;;;;;;;;;;;;5091559;28;19912;-72
2023/09/24 05:17:42;;;;;;;;;;;;;;;;;;5152713;27;20022;-72
2023/09/24 05:22:23;;;;;;;;;;;;;;;;;;5153002;27;20346;-72
2023/09/24 05:24:49;;;;;;;;;;;;;;;;;;5152520;27;19912;-72
2023/09/24 05:27:17;;;;;;;;;;;;;;;;;;5134298;27;19907;-72
2023/09/24 05:29:43;;;;;;;;;;;;;;;;;;5152813;27;19915;-72
2023/09/24 05:32:09;;;;;;;;;;;;;;;;;;5152367;27;19907;-72
2023/09/24 05:37:06;;;;;;;;;;;;;;;;;;5111456;27;20387;-72
2023/09/24 05:39:33;;;;;;;;;;;;;;;;;;5111741;28;19912;-72
2023/09/24 05:41:59;;;;;;;;;;;;;;;;;;5111658;28;19915;-72
2023/09/24 05:44:25;;;;;;;;;;;;;;;;;;5111275;28;19912;-72
2023/09/24 05:51:04;;;;;;;;;;;;;;;;;;5111709;27;19922;-73
2023/09/24 05:53:58;;;;;;;;;;;;;;;;;;5092091;27;20287;-72
2023/09/24 05:56:24;;;;;;;;;;;;;;;;;;5091962;28;19991;-73
2023/09/24 06:00:56;;;;;;;;;;;;;;;;;;5112129;27;19922;-73
2023/09/24 06:03:22;;;;;;;;;;;;;;;;;;5111809;28;20347;-73
2023/09/24 06:06:10;;;;;;;;;;;;;;;;;;5091441;27;19917;-73
2023/09/24 06:08:37;;;;;;;;;;;;;;;;;;5091423;28;19919;-74
2023/09/24 06:11:03;;;;;;;;;;;;;;;;;;5091347;28;19909;-74
2023/09/24 06:13:29;;;;;;;;;;;;;;;;;;5089687;28;19908;-74
2023/09/24 06:15:55;;;;;;;;;;;;;;;;;;5091220;28;19943;-73
2023/09/24 06:18:21;;;;;;;;;;;;;;;;;;5091526;28;20280;-73
2023/09/24 06:20:47;;;;;;;;;;;;;;;;;;5090760;28;19916;-73
2023/09/24 06:23:13;;;;;;;;;;;;;;;;;;5091044;28;19908;-72
2023/09/24 06:25:39;;;;;;;;;;;;;;;;;;5089649;28;19924;-73
2023/09/24 06:28:09;;;;;;;;;;;;;;;;;;5090608;28;19908;-73
2023/09/24 06:32:04;;;;;;;;;;;;;;;;;;5112563;27;19922;-72
2023/09/24 06:39:49;;;;;;;;;;;;;;;;;;5112170;27;19923;-72
2023/09/24 06:42:15;;;;;;;;;;;;;;;;;;5111335;28;20007;-73
2023/09/24 06:46:47;;;;;;;;;;;;;;;;;;5132652;27;20339;-72
2023/09/24 06:49:14;;;;;;;;;;;;;;;;;;5131888;28;19954;-72
2023/09/24 06:51:40;;;;;;;;;;;;;;;;;;5132169;28;19915;-72
2023/09/24 06:54:06;;;;;;;;;;;;;;;;;;5113756;28;19916;-72
2023/09/24 06:56:32;;;;;;;;;;;;;;;;;;5113238;28;19914;-72
2023/09/24 06:58:58;;;;;;;;;;;;;;;;;;5131920;28;19962;-72
2023/09/24 07:01:23;;;;;;;;;;;;;;;;;;5113158;28;19907;-72
2023/09/24 07:03:51;;;;;;;;;;;;;;;;;;5131911;28;19907;-72
2023/09/24 07:07:19;;;;;;;;;;;;;;;;;;5091474;27;19967;-72
2023/09/24 07:09:45;;;;;;;;;;;;;;;;;;5090824;28;19912;-72
2023/09/24 07:12:11;;;;;;;;;;;;;;;;;;5091131;28;19908;-72
2023/09/24 07:17:22;;;;;;;;;;;;;;;;;;5173442;27;20022;-73
2023/09/24 07:19:48;;;;;;;;;;;;;;;;;;5173639;27;20013;-74
2023/09/24 07:22:14;;;;;;;;;;;;;;;;;;5173674;27;20376;-72
2023/09/24 07:24:40;;;;;;;;;;;;;;;;;;5154521;27;19911;-72
2023/09/24 07:27:06;;;;;;;;;;;;;;;;;;5173516;27;19928;-72
2023/09/24 07:29:32;;;;;;;;;;;;;;;;;;5173224;27;19907;-72
2023/09/24 07:31:58;;;;;;;;;;;;;;;;;;5173670;27;20278;-73
2023/09/24 07:34:24;;;;;;;;;;;;;;;;;;5154862;27;19972;-73
2023/09/24 07:38:42;;;;;;;;;;;;;;;;;;5111494;27;19912;-72
2023/09/24 07:41:08;;;;;;;;;;;;;;;;;;5111711;28;20264;-72
2023/09/24 07:43:34;;;;;;;;;;;;;;;;;;5111391;28;19915;-72
2023/09/24 07:46:00;;;;;;;;;;;;;;;;;;5111694;28;19908;-72
2023/09/24 07:51:09;;;;;;;;;;;;;;;;;;5111725;27;19923;-73
2023/09/24 07:53:35;;;;;;;;;;;;;;;;;;5111694;28;19918;-72
2023/09/24 07:56:02;;;;;;;;;;;;;;;;;;5111611;28;19908;-73
2023/09/24 07:58:30;;;;;;;;;;;;;;;;;;5111178;28;19912;-73
2023/09/24 08:00:56;;;;;;;;;;;;;;;;;;5111732;28;19923;-73
2023/09/24 08:03:22;;;;;;;;;;;;;;;;;;5111749;28;19908;-74
2023/09/24 08:05:48;;;;;;;;;;;;;;;;;;5111272;28;19912;-74
2023/09/24 08:08:14;;;;;;;;;;;;;;;;;;5111420;28;19908;-73
2023/09/24 08:10:40;;;;;;;;;;;;;;;;;;5111386;28;19923;-73
2023/09/24 08:13:06;;;;;;;;;;;;;;;;;;5111057;28;19908;-73
2023/09/24 08:15:32;;;;;;;;;;;;;;;;;;5110045;28;20005;-73
2023/09/24 08:17:58;;;;;;;;;;;;;;;;;;5111336;28;19937;-75
2023/09/24 08:20:23;;;;;;;;;;;;;;;;;;5109554;28;20264;-73
2023/09/24 08:24:23;;;;;;;;;;;;;;;;;;5071910;28;19923;-72
2023/09/24 08:26:49;;;;;;;;;;;;;;;;;;5070728;28;20011;-72
2023/09/24 08:29:15;;;;;;;;;;;;;;;;;;5069829;28;19908;-72
2023/09/24 08:31:41;;;;;;;;;;;;;;;;;;5071059;28;20383;-72
2023/09/24 08:34:07;;;;;;;;;;;;;;;;;;5069331;28;19909;-73
2023/09/24 08:36:33;;;;;;;;;;;;;;;;;;5069740;28;20428;-72
2023/09/24 08:39:01;;;;;;;;;;;;;;;;;;5070837;28;20357;-72
2023/09/24 08:41:27;;;;;;;;;;;;;;;;;;5070320;28;19909;-73
2023/09/24 08:43:53;;;;;;;;;;;;;;;;;;5070749;28;20372;-73
2023/09/24 08:46:19;;;;;;;;;;;;;;;;;;5070713;28;19909;-72
2023/09/24 08:48:45;;;;;;;;;;;;;;;;;;5070309;28;19909;-73
2023/09/24 08:51:11;;;;;;;;;;;;;;;;;;5070918;28;19944;-72
2023/09/24 08:53:37;;;;;;;;;;;;;;;;;;5070602;28;19909;-73
2023/09/24 08:56:03;;;;;;;;;;;;;;;;;;5070168;28;19920;-73
2023/09/24 08:58:29;;;;;;;;;;;;;;;;;;5070584;28;19916;-73
2023/09/24 09:00:55;;;;;;;;;;;;;;;;;;5070071;28;19909;-72
2023/09/24 09:03:21;;;;;;;;;;;;;;;;;;5070365;28;19917;-72
2023/09/24 09:05:48;;;;;;;;;;;;;;;;;;5070422;28;19915;-73
2023/09/24 09:08:14;;;;;;;;;;;;;;;;;;5068900;28;19908;-72
2023/09/24 09:10:40;;;;;;;;;;;;;;;;;;5070283;28;19909;-72
2023/09/24 09:13:05;;;;;;;;;;;;;;;;;;5070196;28;19932;-72
2023/09/24 09:15:32;;;;;;;;;;;;;;;;;;5069753;28;19933;-73
2023/09/24 09:17:58;;;;;;;;;;;;;;;;;;5070144;28;19908;-73
2023/09/24 09:20:24;;;;;;;;;;;;;;;;;;5068870;28;20310;-73
2023/09/24 09:22:50;;;;;;;;;;;;;;;;;;5069430;28;20292;-73
2023/09/24 09:25:17;;;;;;;;;;;;;;;;;;5069976;28;20321;-73
2023/09/24 09:27:43;;;;;;;;;;;;;;;;;;5069944;28;20364;-73
2023/09/24 09:30:09;;;;;;;;;;;;;;;;;;5069663;28;20000;-74
2023/09/24 09:32:36;;;;;;;;;;;;;;;;;;5069808;28;20368;-73
2023/09/24 09:35:03;;;;;;;;;;;;;;;;;;5060351;28;19917;-73
2023/09/24 09:37:28;;;;;;;;;;;;;;;;;;5054822;28;19916;-73
2023/09/24 09:39:54;;;;;;;;;;;;;;;;;;5056436;28;19909;-73
2023/09/24 09:42:21;;;;;;;;;;;;;;;;;;5056561;28;19920;-73
2023/09/24 09:44:47;;;;;;;;;;;;;;;;;;5056060;28;19913;-72
2023/09/24 09:47:13;;;;;;;;;;;;;;;;;;5056293;28;19927;-73
2023/09/24 09:49:39;;;;;;;;;;;;;;;;;;5056270;28;19945;-73
2023/09/24 09:52:05;;;;;;;;;;;;;;;;;;5055937;28;19920;-72
2023/09/24 09:54:31;;;;;;;;;;;;;;;;;;5056238;28;19909;-73
2023/09/24 09:56:57;;;;;;;;;;;;;;;;;;5056103;28;19909;-73
2023/09/24 09:59:23;;;;;;;;;;;;;;;;;;5055707;28;20401;-73
2023/09/24 10:01:49;;;;;;;;;;;;;;;;;;5056230;28;19909;-73
2023/09/24 10:04:15;;;;;;;;;;;;;;;;;;5055504;28;19990;-72
2023/09/24 10:06:41;;;;;;;;;;;;;;;;;;5055986;28;19909;-73
2023/09/24 10:09:07;;;;;;;;;;;;;;;;;;5056001;28;19974;-73
2023/09/24 10:11:33;;;;;;;;;;;;;;;;;;5054290;28;20320;-73
2023/09/24 10:13:59;;;;;;;;;;;;;;;;;;5055812;28;19996;-73
2023/09/24 10:16:25;;;;;;;;;;;;;;;;;;5054580;28;19909;-73
2023/09/24 10:18:51;;;;;;;;;;;;;;;;;;5055584;28;20046;-73
2023/09/24 10:22:21;;;;;;;;;;;;;;;;;;5112130;27;19916;-72
2023/09/24 10:24:47;;;;;;;;;;;;;;;;;;5110604;28;20010;-73
2023/09/24 10:27:13;;;;;;;;;;;;;;;;;;5111298;28;19908;-73
2023/09/24 10:29:39;;;;;;;;;;;;;;;;;;5111635;28;19908;-73
2023/09/24 10:32:05;;;;;;;;;;;;;;;;;;5111561;28;19961;-73
2023/09/24 10:34:31;;;;;;;;;;;;;;;;;;5111194;28;19955;-73
2023/09/24 10:36:57;;;;;;;;;;;;;;;;;;5111759;28;19915;-73
2023/09/24 10:39:23;;;;;;;;;;;;;;;;;;5109789;28;19907;-73
2023/09/24 10:41:49;;;;;;;;;;;;;;;;;;5111374;28;20296;-73
2023/09/24 10:44:14;;;;;;;;;;;;;;;;;;5110113;28;20260;-73
2023/09/24 10:46:40;;;;;;;;;;;;;;;;;;5110955;28;20291;-73
2023/09/24 10:49:06;;;;;;;;;;;;;;;;;;5111232;28;20303;-73
2023/09/24 10:51:32;;;;;;;;;;;;;;;;;;5111221;28;20275;-73
2023/09/24 10:53:58;;;;;;;;;;;;;;;;;;5110825;28;20346;-73
2023/09/24 10:56:24;;;;;;;;;;;;;;;;;;5111089;28;19908;-73
2023/09/24 10:58:50;;;;;;;;;;;;;;;;;;5111077;28;19908;-73
2023/09/24 11:01:16;;;;;;;;;;;;;;;;;;5109234;28;19969;-73
2023/09/24 11:03:42;;;;;;;;;;;;;;;;;;5111230;28;19953;-73
2023/09/24 11:06:08;;;;;;;;;;;;;;;;;;5110993;28;20333;-73
2023/09/24 11:08:34;;;;;;;;;;;;;;;;;;5110549;28;19943;-73
2023/09/24 11:11:00;;;;;;;;;;;;;;;;;;5109536;28;19970;-73
2023/09/24 11:13:26;;;;;;;;;;;;;;;;;;5109553;28;19908;-73
2023/09/24 11:15:52;;;;;;;;;;;;;;;;;;5110425;28;20329;-73
2023/09/24 11:18:18;;;;;;;;;;;;;;;;;;5110793;28;19955;-73
2023/09/24 11:20:44;;;;;;;;;;;;;;;;;;5110469;28;19920;-73
2023/09/24 11:23:11;;;;;;;;;;;;;;;;;;5110216;28;19912;-73
2023/09/24 11:25:37;;;;;;;;;;;;;;;;;;5110567;28;19923;-73
2023/09/24 11:28:03;;;;;;;;;;;;;;;;;;5110784;28;19908;-73
2023/09/24 11:30:29;;;;;;;;;;;;;;;;;;5110204;28;20360;-74
2023/09/24 11:32:54;;;;;;;;;;;;;;;;;;5101269;28;20283;-74
2023/09/24 11:36:20;;;;;;;;;;;;;;;;;;5111915;27;19916;-72
2023/09/24 11:38:46;;;;;;;;;;;;;;;;;;5111767;28;19912;-72
2023/09/24 11:41:13;;;;;;;;;;;;;;;;;;5111651;28;19908;-73
2023/09/24 11:43:39;;;;;;;;;;;;;;;;;;5111437;28;20421;-74
2023/09/24 11:46:05;;;;;;;;;;;;;;;;;;5111802;28;19915;-73
2023/09/24 11:48:31;;;;;;;;;;;;;;;;;;5111551;28;19908;-73
2023/09/24 11:50:57;;;;;;;;;;;;;;;;;;5111097;28;19908;-73
2023/09/24 11:53:23;;;;;;;;;;;;;;;;;;5111387;28;19974;-73
2023/09/24 11:55:49;;;;;;;;;;;;;;;;;;5110069;28;19923;-73
2023/09/24 11:58:17;;;;;;;;;;;;;;;;;;5111099;28;20402;-73
2023/09/24 12:00:43;;;;;;;;;;;;;;;;;;5111329;28;19908;-73
2023/09/24 12:03:09;;;;;;;;;;;;;;;;;;5111309;28;19912;-73
2023/09/24 12:05:35;;;;;;;;;;;;;;;;;;5110730;28;20435;-73
2023/09/24 12:08:01;;;;;;;;;;;;;;;;;;5111208;28;20364;-73
2023/09/24 12:11:20;;;;;;;;;;;;;;;;;;5091150;27;20364;-74
2023/09/24 12:13:46;;;;;;;;;;;;;;;;;;5091219;28;19999;-72
2023/09/24 12:16:14;;;;;;;;;;;;;;;;;;5090841;28;20379;-73
2023/09/24 12:18:40;;;;;;;;;;;;;;;;;;5090634;28;19915;-73
2023/09/24 12:21:06;;;;;;;;;;;;;;;;;;5091378;28;19915;-73
2023/09/24 12:23:32;;;;;;;;;;;;;;;;;;5090964;28;19909;-73
2023/09/24 12:27:25;;;;;;;;;;;;;;;;;;5111783;27;19922;-72
2023/09/24 12:29:51;;;;;;;;;;;;;;;;;;5111638;28;19920;-72
2023/09/24 12:32:17;;;;;;;;;;;;;;;;;;5111096;28;19914;-72
2023/09/24 12:34:43;;;;;;;;;;;;;;;;;;5111736;28;20368;-73
2023/09/24 12:37:09;;;;;;;;;;;;;;;;;;5111524;28;19908;-73
2023/09/24 12:39:35;;;;;;;;;;;;;;;;;;5111052;28;19908;-73
2023/09/24 12:42:01;;;;;;;;;;;;;;;;;;5111466;28;19967;-74
2023/09/24 12:44:27;;;;;;;;;;;;;;;;;;5110002;28;19908;-73
2023/09/24 12:46:53;;;;;;;;;;;;;;;;;;5110990;28;19916;-73
2023/09/24 12:49:19;;;;;;;;;;;;;;;;;;5111328;28;19988;-73
2023/09/24 12:51:45;;;;;;;;;;;;;;;;;;5111179;28;19908;-73
2023/09/24 12:54:11;;;;;;;;;;;;;;;;;;5111058;28;19994;-73
2023/09/24 12:56:37;;;;;;;;;;;;;;;;;;5111247;28;19943;-73
2023/09/24 12:59:04;;;;;;;;;;;;;;;;;;5109869;28;19915;-73
2023/09/24 13:01:30;;;;;;;;;;;;;;;;;;5110778;28;19908;-73
2023/09/24 13:03:56;;;;;;;;;;;;;;;;;;5111065;28;19908;-73
2023/09/24 13:06:22;;;;;;;;;;;;;;;;;;5111077;28;19916;-73
2023/09/24 13:08:49;;;;;;;;;;;;;;;;;;5110657;28;19915;-73
2023/09/24 13:11:15;;;;;;;;;;;;;;;;;;5110942;28;19954;-72
2023/09/24 13:13:41;;;;;;;;;;;;;;;;;;5110796;28;19908;-73
2023/09/24 13:16:07;;;;;;;;;;;;;;;;;;5110426;28;19909;-73
2023/09/24 13:18:33;;;;;;;;;;;;;;;;;;5111074;28;19908;-73
2023/09/24 13:20:59;;;;;;;;;;;;;;;;;;5110450;28;19908;-73
2023/09/24 13:23:24;;;;;;;;;;;;;;;;;;5111025;28;19915;-72
2023/09/24 13:25:50;;;;;;;;;;;;;;;;;;5110665;28;20367;-73
2023/09/24 13:28:16;;;;;;;;;;;;;;;;;;5110295;28;20444;-72
2023/09/24 13:30:43;;;;;;;;;;;;;;;;;;5110560;28;20429;-73
2023/09/24 13:33:09;;;;;;;;;;;;;;;;;;5110456;28;19923;-73
2023/09/24 13:35:35;;;;;;;;;;;;;;;;;;5110089;28;19908;-73
2023/09/24 13:38:02;;;;;;;;;;;;;;;;;;5100796;28;19908;-73
2023/09/24 13:40:28;;;;;;;;;;;;;;;;;;5096845;28;19908;-73
2023/09/24 13:42:55;;;;;;;;;;;;;;;;;;5096385;28;19935;-73
2023/09/24 13:45:21;;;;;;;;;;;;;;;;;;5095468;28;20364;-73
2023/09/24 13:47:47;;;;;;;;;;;;;;;;;;5096745;28;19912;-73
2023/09/24 13:50:13;;;;;;;;;;;;;;;;;;5096256;28;19912;-73
2023/09/24 13:52:39;;;;;;;;;;;;;;;;;;5096980;28;20380;-74
2023/09/24 13:55:05;;;;;;;;;;;;;;;;;;5096569;28;19908;-74
2023/09/24 13:57:31;;;;;;;;;;;;;;;;;;5096153;28;19931;-72
2023/09/24 13:59:57;;;;;;;;;;;;;;;;;;5096436;28;20007;-72
2023/09/24 14:02:23;;;;;;;;;;;;;;;;;;5096496;28;19912;-74
2023/09/24 14:04:49;;;;;;;;;;;;;;;;;;5094675;28;19909;-72
2023/09/24 14:07:16;;;;;;;;;;;;;;;;;;5096190;28;20011;-73
2023/09/24 14:12:27;;;;;;;;;;;;;;;;;;5095875;28;19961;-73
2023/09/24 14:14:53;;;;;;;;;;;;;;;;;;5096114;28;19915;-73
2023/09/24 14:19:31;;;;;;;;;;;;;;;;;;5152579;27;19911;-73
2023/09/24 14:21:57;;;;;;;;;;;;;;;;;;5152703;27;19962;-73
2023/09/24 14:26:12;;;;;;;;;;;;;;;;;;5111400;27;19916;-74
2023/09/24 14:28:38;;;;;;;;;;;;;;;;;;5112141;28;19971;-74
2023/09/24 14:31:03;;;;;;;;;;;;;;;;;;5111665;28;19915;-74
2023/09/24 14:33:29;;;;;;;;;;;;;;;;;;5111222;28;19908;-73
2023/09/24 14:35:55;;;;;;;;;;;;;;;;;;5111662;28;19908;-72
2023/09/24 14:38:21;;;;;;;;;;;;;;;;;;5110328;28;20264;-73
2023/09/24 14:40:47;;;;;;;;;;;;;;;;;;5111175;28;19947;-72
2023/09/24 14:43:13;;;;;;;;;;;;;;;;;;5111748;28;19908;-73
2023/09/24 14:45:40;;;;;;;;;;;;;;;;;;5110995;28;19916;-73
2023/09/24 14:48:06;;;;;;;;;;;;;;;;;;5111422;28;19908;-72
2023/09/24 14:50:31;;;;;;;;;;;;;;;;;;5111369;28;19919;-74
2023/09/24 14:55:07;;;;;;;;;;;;;;;;;;5112600;27;19923;-73
2023/09/24 14:57:33;;;;;;;;;;;;;;;;;;5111842;28;20006;-74
2023/09/24 14:59:59;;;;;;;;;;;;;;;;;;5111329;28;19912;-73
2023/09/24 15:02:25;;;;;;;;;;;;;;;;;;5110344;28;19908;-73
2023/09/24 15:04:51;;;;;;;;;;;;;;;;;;5111813;28;19939;-73
2023/09/24 15:07:17;;;;;;;;;;;;;;;;;;5111161;28;19919;-74
2023/09/24 15:09:43;;;;;;;;;;;;;;;;;;5111746;28;19908;-73
2023/09/24 15:12:09;;;;;;;;;;;;;;;;;;5111461;28;19961;-74
2023/09/24 15:14:35;;;;;;;;;;;;;;;;;;5111002;28;20014;-73
2023/09/24 15:17:01;;;;;;;;;;;;;;;;;;5110106;28;19908;-73
2023/09/24 15:19:27;;;;;;;;;;;;;;;;;;5111499;28;19912;-72
2023/09/24 15:21:53;;;;;;;;;;;;;;;;;;5110943;28;19955;-72
2023/09/24 15:24:19;;;;;;;;;;;;;;;;;;5111127;28;19974;-73
2023/09/24 15:26:45;;;;;;;;;;;;;;;;;;5111192;28;20381;-74
2023/09/24 15:29:11;;;;;;;;;;;;;;;;;;5110713;28;20280;-73
2023/09/24 15:31:37;;;;;;;;;;;;;;;;;;5111088;28;19942;-73
2023/09/24 15:34:02;;;;;;;;;;;;;;;;;;5110986;28;19982;-73
2023/09/24 15:36:28;;;;;;;;;;;;;;;;;;5110614;28;19915;-74
2023/09/24 15:38:54;;;;;;;;;;;;;;;;;;5110936;28;19919;-73
2023/09/24 15:41:21;;;;;;;;;;;;;;;;;;5109504;28;19950;-73
2023/09/24 15:43:47;;;;;;;;;;;;;;;;;;5110466;28;19919;-73
2023/09/24 15:46:13;;;;;;;;;;;;;;;;;;5110689;28;20326;-74
2023/09/24 15:51:09;;;;;;;;;;;;;;;;;;5111813;27;19934;-73
2023/09/24 15:53:35;;;;;;;;;;;;;;;;;;5111735;28;20427;-73
2023/09/24 15:56:01;;;;;;;;;;;;;;;;;;5110025;28;19908;-74
2023/09/24 15:58:27;;;;;;;;;;;;;;;;;;5111655;28;19912;-73
2023/09/24 16:03:19;;;;;;;;;;;;;;;;;;5091115;27;19930;-73
2023/09/24 16:05:45;;;;;;;;;;;;;;;;;;5091418;28;20003;-73
2023/09/24 16:08:11;;;;;;;;;;;;;;;;;;5089958;28;19936;-73
2023/09/24 16:10:37;;;;;;;;;;;;;;;;;;5090850;28;19963;-73
2023/09/24 16:13:03;;;;;;;;;;;;;;;;;;5091452;28;19909;-73
2023/09/24 16:15:29;;;;;;;;;;;;;;;;;;5091072;28;19908;-73
2023/09/24 16:17:55;;;;;;;;;;;;;;;;;;5089355;28;19955;-74
2023/09/24 16:20:21;;;;;;;;;;;;;;;;;;5091038;28;19908;-74
2023/09/24 16:23:54;;;;;;;;;;;;;;;;;;5132166;27;19916;-73
2023/09/24 16:26:21;;;;;;;;;;;;;;;;;;5131811;27;19918;-74
2023/09/24 16:28:47;;;;;;;;;;;;;;;;;;5132199;27;20343;-73
2023/09/24 16:31:13;;;;;;;;;;;;;;;;;;5131968;27;19911;-73
2023/09/24 16:33:39;;;;;;;;;;;;;;;;;;5130804;28;19977;-73
2023/09/24 16:36:05;;;;;;;;;;;;;;;;;;5130721;28;20020;-72
2023/09/24 16:38:31;;;;;;;;;;;;;;;;;;5131516;27;19915;-72
2023/09/24 16:40:57;;;;;;;;;;;;;;;;;;5131798;27;19908;-73
2023/09/24 16:43:23;;;;;;;;;;;;;;;;;;5131807;27;19969;-73
2023/09/24 16:45:49;;;;;;;;;;;;;;;;;;5130236;28;20372;-73
2023/09/24 16:48:15;;;;;;;;;;;;;;;;;;5131774;27;19907;-73
2023/09/24 16:50:41;;;;;;;;;;;;;;;;;;5131761;27;19912;-73
2023/09/24 16:53:07;;;;;;;;;;;;;;;;;;5131326;27;19915;-73
2023/09/24 16:56:30;;;;;;;;;;;;;;;;;;5111988;27;19916;-74
2023/09/24 16:58:56;;;;;;;;;;;;;;;;;;5110405;28;19999;-74
2023/09/24 17:01:22;;;;;;;;;;;;;;;;;;5111401;28;20342;-74
2023/09/24 17:05:08;;;;;;;;;;;;;;;;;;5112327;27;19924;-73
2023/09/24 17:11:13;;;;;;;;;;;;;;;;;;5112311;27;19916;-72
2023/09/24 17:13:40;;;;;;;;;;;;;;;;;;5111358;28;20003;-75
2023/09/24 17:20:22;;;;;;;;;;;;;;;;;;5111810;27;19916;-73
2023/09/24 17:22:48;;;;;;;;;;;;;;;;;;5110445;28;20028;-72
2023/09/24 17:25:14;;;;;;;;;;;;;;;;;;5111903;28;19908;-73
2023/09/24 17:30:42;;;;;;;;;;;;;;;;;;5111791;27;19916;-75
2023/09/24 17:33:08;;;;;;;;;;;;;;;;;;5111755;28;20455;-73
2023/09/24 17:35:35;;;;;;;;;;;;;;;;;;5111332;28;19977;-73
2023/09/24 17:38:01;;;;;;;;;;;;;;;;;;5111595;28;19915;-73
2023/09/24 17:42:50;;;;;;;;;;;;;;;;;;5111429;27;19912;-73
2023/09/24 17:45:16;;;;;;;;;;;;;;;;;;5111705;28;20447;-73
2023/09/24 17:47:45;;;;;;;;;;;;;;;;;;5111615;28;19977;-73
2023/09/24 17:51:19;;;;;;;;;;;;;;;;;;5132237;27;19912;-73
2023/09/24 17:53:45;;;;;;;;;;;;;;;;;;5132212;28;20006;-73
2023/09/24 17:56:11;;;;;;;;;;;;;;;;;;5131792;28;19953;-73
2023/09/24 17:58:37;;;;;;;;;;;;;;;;;;5132134;28;19908;-73
2023/09/24 18:01:04;;;;;;;;;;;;;;;;;;5130828;28;20346;-73
2023/09/24 18:03:29;;;;;;;;;;;;;;;;;;5131713;28;20283;-74
2023/09/24 18:05:55;;;;;;;;;;;;;;;;;;5132063;28;19907;-73
2023/09/24 18:08:24;;;;;;;;;;;;;;;;;;5131916;28;19908;-73
2023/09/24 18:11:27;;;;;;;;;;;;;;;;;;5091044;28;19917;-72
2023/09/24 18:13:53;;;;;;;;;;;;;;;;;;5091390;28;20007;-73
2023/09/24 18:16:19;;;;;;;;;;;;;;;;;;5091402;28;19909;-73
2023/09/24 18:18:46;;;;;;;;;;;;;;;;;;5090885;28;20003;-73
2023/09/24 18:21:18;;;;;;;;;;;;;;;;;;5091332;28;19908;-72
2023/09/24 18:23:44;;;;;;;;;;;;;;;;;;5090897;28;19909;-73
2023/09/24 18:26:10;;;;;;;;;;;;;;;;;;5091174;28;19909;-73
2023/09/24 18:28:36;;;;;;;;;;;;;;;;;;5091145;28;19931;-74
2023/09/24 18:31:01;;;;;;;;;;;;;;;;;;5090554;28;19917;-73
2023/09/24 18:33:27;;;;;;;;;;;;;;;;;;5090893;28;19957;-75
2023/09/24 18:35:53;;;;;;;;;;;;;;;;;;5089707;28;19909;-74
2023/09/24 18:39:10;;;;;;;;;;;;;;;;;;5173512;27;19994;-74
2023/09/24 18:41:36;;;;;;;;;;;;;;;;;;5174046;27;20401;-73
2023/09/24 18:44:02;;;;;;;;;;;;;;;;;;5173652;27;19907;-73
2023/09/24 18:46:29;;;;;;;;;;;;;;;;;;5173245;27;19954;-73
2023/09/24 18:48:55;;;;;;;;;;;;;;;;;;5173602;27;19907;-73
2023/09/24 18:51:21;;;;;;;;;;;;;;;;;;5173529;27;19930;-73
2023/09/24 18:53:47;;;;;;;;;;;;;;;;;;5173068;27;19911;-73
2023/09/24 18:56:13;;;;;;;;;;;;;;;;;;5173418;27;19928;-73
2023/09/24 18:58:38;;;;;;;;;;;;;;;;;;5173669;27;19918;-73
2023/09/24 19:01:04;;;;;;;;;;;;;;;;;;5172923;27;19907;-74
2023/09/24 19:03:30;;;;;;;;;;;;;;;;;;5154604;27;19921;-74
2023/09/24 19:05:57;;;;;;;;;;;;;;;;;;5172885;27;19907;-74
2023/09/24 19:09:51;;;;;;;;;;;;;;;;;;5111841;27;19916;-72
2023/09/24 19:14:03;;;;;;;;;;;;;;;;;;5111759;27;19922;-74